Terminal Aerodrome Forecast
Issued by NWS Mt. Holly, NJ

Home | Current Version | Previous Version | Text Only | Print | Product List | Glossary On
Versions: 1 2 3 4 5 6 7 8 9 10 11 12 13 14 15 16 17 18
284
FTUS41 KPHI 161832 AAA
TAFACY
TAF AMD
KACY 161832Z 1619/1718 13009KT P6SM BKN027
      TEMPO 1619/1621 SCT027
     FM170200 VRB03KT P6SM OVC035
     FM170500 36004KT 6SM -RA OVC015
     FM170800 34005KT 6SM -RA OVC010
     FM171000 33007KT 6SM -RASN OVC007
     FM171400 32010KT P6SM OVC015=

USA.gov is the U.S. government's official web portal to all federal, state and local government web resources and services.